Northup, Ohio
Current Conditions -  °F | °C
As of 3:15 PM on Wednesday 28 Jan 2015 (Local Time) from K3I2 Reporting Station
Clear Clear  
Wind Chill: 34°   Ceiling: Unl
Heat Index: 34°   Visibility: 10mi
Dew Point: 19°   Wind: 3mph
Humidity: 56%   Direction: 290°WNW
Pressure: 30.36"   Gusts: NA
Location:  38.7746°N, 82.4376°W
Report Text: K3I2 282015Z AUTO 29003KT 10SM CLR 01/M07 A3036 RMK AO2
Loading
Personal Weather Stations






























Interactive Weather Map New forecast layout! Learn more

10-Day Weather Forecast

Advertisements
Track Severe Weather on mobile